Bay Islands (Utila), Honduras
Current Conditions -  °F | °C
As of 6:00 AM on Thursday 23 Oct 2014 (Local Time) from MHLC Reporting Station
Broken Clouds Broken Clouds  
Wind Chill: 75°   Ceiling: 20000
Heat Index: 75°   Visibility: 6mi
Dew Point: 73°   Wind: 5mph
Humidity: 94%   Direction: 170°S
Pressure: 29.77"   Gusts: NA
Location:  16.1°N, 86.95°W
Report Text: MHLC 231200Z 17004KT 9999 FEW030CB BKN200 24/23 Q1008 A2978NOSIG
Loading
Personal Weather Stations






























Interactive Weather Map
Tropical Storm Tracking
New forecast layout! Learn more

10-Day Weather Forecast

Advertisements
Track Severe Weather on mobile